sensor_id;sensor_type;location;lat;lon;timestamp;P1;durP1;ratioP1;P2;durP2;ratioP2
26690;SDS011;14307;51.718;8.938;2024-01-30T00:00:20;56.17;;;43.42;;
26690;SDS011;14307;51.718;8.938;2024-01-30T00:02:47;62.90;;;44.45;;
26690;SDS011;14307;51.718;8.938;2024-01-30T00:05:14;61.97;;;46.88;;
26690;SDS011;14307;51.718;8.938;2024-01-30T00:07:40;65.40;;;46.08;;
26690;SDS011;14307;51.718;8.938;2024-01-30T00:10:07;59.50;;;45.92;;
26690;SDS011;14307;51.718;8.938;2024-01-30T00:12:34;59.72;;;44.92;;
26690;SDS011;14307;51.718;8.938;2024-01-30T00:15:01;64.18;;;47.10;;
26690;SDS011;14307;51.718;8.938;2024-01-30T00:17:30;62.72;;;46.22;;
26690;SDS011;14307;51.718;8.938;2024-01-30T00:19:57;55.97;;;42.60;;
26690;SDS011;14307;51.718;8.938;2024-01-30T00:22:24;55.15;;;44.05;;
26690;SDS011;14307;51.718;8.938;2024-01-30T00:24:51;61.67;;;45.08;;
26690;SDS011;14307;51.718;8.938;2024-01-30T00:27:18;63.55;;;44.92;;
26690;SDS011;14307;51.718;8.938;2024-01-30T00:29:44;64.57;;;46.97;;
26690;SDS011;14307;51.718;8.938;2024-01-30T00:32:11;64.00;;;47.30;;
26690;SDS011;14307;51.718;8.938;2024-01-30T00:34:41;62.25;;;46.85;;
26690;SDS011;14307;51.718;8.938;2024-01-30T00:37:08;63.83;;;48.08;;
26690;SDS011;14307;51.718;8.938;2024-01-30T00:39:35;61.95;;;47.28;;
26690;SDS011;14307;51.718;8.938;2024-01-30T00:42:02;61.05;;;47.67;;
26690;SDS011;14307;51.718;8.938;2024-01-30T00:44:29;65.25;;;48.60;;
26690;SDS011;14307;51.718;8.938;2024-01-30T00:46:56;66.82;;;48.25;;
26690;SDS011;14307;51.718;8.938;2024-01-30T00:49:22;71.57;;;48.53;;
26690;SDS011;14307;51.718;8.938;2024-01-30T00:51:49;77.50;;;51.50;;
26690;SDS011;14307;51.718;8.938;2024-01-30T00:54:16;75.53;;;49.50;;
26690;SDS011;14307;51.718;8.938;2024-01-30T00:56:43;70.07;;;48.90;;
26690;SDS011;14307;51.718;8.938;2024-01-30T00:59:11;69.88;;;46.38;;
26690;SDS011;14307;51.718;8.938;2024-01-30T01:01:37;61.30;;;43.22;;
26690;SDS011;14307;51.718;8.938;2024-01-30T01:04:04;63.08;;;42.15;;
26690;SDS011;14307;51.718;8.938;2024-01-30T01:06:31;60.08;;;43.22;;
26690;SDS011;14307;51.718;8.938;2024-01-30T01:08:58;63.67;;;44.90;;
26690;SDS011;14307;51.718;8.938;2024-01-30T01:11:28;70.97;;;45.13;;
26690;SDS011;14307;51.718;8.938;2024-01-30T01:13:54;71.03;;;43.95;;
26690;SDS011;14307;51.718;8.938;2024-01-30T01:16:21;72.35;;;46.42;;
26690;SDS011;14307;51.718;8.938;2024-01-30T01:18:48;72.88;;;46.88;;
26690;SDS011;14307;51.718;8.938;2024-01-30T01:21:15;76.45;;;50.55;;
26690;SDS011;14307;51.718;8.938;2024-01-30T01:23:41;75.18;;;51.15;;
26690;SDS011;14307;51.718;8.938;2024-01-30T01:26:08;79.63;;;51.28;;
26690;SDS011;14307;51.718;8.938;2024-01-30T01:28:36;76.80;;;51.03;;
26690;SDS011;14307;51.718;8.938;2024-01-30T01:31:02;74.60;;;49.40;;
26690;SDS011;14307;51.718;8.938;2024-01-30T01:33:32;81.78;;;53.53;;
26690;SDS011;14307;51.718;8.938;2024-01-30T01:36:00;81.38;;;53.13;;
26690;SDS011;14307;51.718;8.938;2024-01-30T01:38:28;77.68;;;52.40;;
26690;SDS011;14307;51.718;8.938;2024-01-30T01:40:55;78.07;;;51.92;;
26690;SDS011;14307;51.718;8.938;2024-01-30T01:43:22;90.35;;;54.13;;
26690;SDS011;14307;51.718;8.938;2024-01-30T01:45:49;87.40;;;53.70;;
26690;SDS011;14307;51.718;8.938;2024-01-30T01:48:16;90.63;;;54.20;;
26690;SDS011;14307;51.718;8.938;2024-01-30T01:50:43;91.88;;;53.25;;
26690;SDS011;14307;51.718;8.938;2024-01-30T01:53:10;78.68;;;50.08;;
26690;SDS011;14307;51.718;8.938;2024-01-30T01:55:38;81.38;;;51.72;;
26690;SDS011;14307;51.718;8.938;2024-01-30T01:58:04;79.13;;;51.75;;
26690;SDS011;14307;51.718;8.938;2024-01-30T02:00:31;79.97;;;50.63;;
26690;SDS011;14307;51.718;8.938;2024-01-30T02:02:58;84.82;;;52.80;;
26690;SDS011;14307;51.718;8.938;2024-01-30T02:05:27;74.15;;;49.42;;
26690;SDS011;14307;51.718;8.938;2024-01-30T02:07:54;87.70;;;51.58;;
26690;SDS011;14307;51.718;8.938;2024-01-30T02:10:22;86.38;;;51.72;;
26690;SDS011;14307;51.718;8.938;2024-01-30T02:12:51;78.32;;;52.08;;
26690;SDS011;14307;51.718;8.938;2024-01-30T02:15:18;76.45;;;53.03;;
26690;SDS011;14307;51.718;8.938;2024-01-30T02:17:45;83.53;;;53.13;;
26690;SDS011;14307;51.718;8.938;2024-01-30T02:20:12;83.72;;;53.70;;
26690;SDS011;14307;51.718;8.938;2024-01-30T02:22:40;85.95;;;52.58;;
26690;SDS011;14307;51.718;8.938;2024-01-30T02:25:07;86.70;;;55.05;;
26690;SDS011;14307;51.718;8.938;2024-01-30T02:27:34;87.43;;;53.35;;
26690;SDS011;14307;51.718;8.938;2024-01-30T02:30:01;91.32;;;55.05;;
26690;SDS011;14307;51.718;8.938;2024-01-30T02:32:28;82.63;;;53.75;;
26690;SDS011;14307;51.718;8.938;2024-01-30T02:34:54;85.32;;;54.95;;
26690;SDS011;14307;51.718;8.938;2024-01-30T02:37:21;95.45;;;56.58;;
26690;SDS011;14307;51.718;8.938;2024-01-30T02:39:48;105.45;;;56.50;;
26690;SDS011;14307;51.718;8.938;2024-01-30T02:42:15;87.45;;;55.95;;
26690;SDS011;14307;51.718;8.938;2024-01-30T02:44:41;94.20;;;56.08;;
26690;SDS011;14307;51.718;8.938;2024-01-30T02:47:08;94.40;;;54.70;;
26690;SDS011;14307;51.718;8.938;2024-01-30T02:49:35;96.00;;;54.83;;
26690;SDS011;14307;51.718;8.938;2024-01-30T02:52:02;86.72;;;53.00;;
26690;SDS011;14307;51.718;8.938;2024-01-30T02:54:30;79.50;;;51.67;;
26690;SDS011;14307;51.718;8.938;2024-01-30T02:56:57;79.25;;;49.50;;
26690;SDS011;14307;51.718;8.938;2024-01-30T02:59:24;85.95;;;49.55;;
26690;SDS011;14307;51.718;8.938;2024-01-30T03:01:50;79.28;;;51.58;;
26690;SDS011;14307;51.718;8.938;2024-01-30T03:04:17;83.05;;;48.97;;
26690;SDS011;14307;51.718;8.938;2024-01-30T03:06:45;85.80;;;50.85;;
26690;SDS011;14307;51.718;8.938;2024-01-30T03:09:13;88.72;;;50.60;;
26690;SDS011;14307;51.718;8.938;2024-01-30T03:11:41;79.00;;;50.33;;
26690;SDS011;14307;51.718;8.938;2024-01-30T03:14:08;71.35;;;47.95;;
26690;SDS011;14307;51.718;8.938;2024-01-30T03:16:37;79.53;;;48.60;;
26690;SDS011;14307;51.718;8.938;2024-01-30T03:19:07;83.93;;;50.13;;
26690;SDS011;14307;51.718;8.938;2024-01-30T03:21:35;87.50;;;50.00;;
26690;SDS011;14307;51.718;8.938;2024-01-30T03:24:02;78.63;;;49.35;;
26690;SDS011;14307;51.718;8.938;2024-01-30T03:26:29;83.03;;;50.97;;
26690;SDS011;14307;51.718;8.938;2024-01-30T03:28:56;79.53;;;48.47;;
26690;SDS011;14307;51.718;8.938;2024-01-30T03:31:22;87.43;;;48.67;;
26690;SDS011;14307;51.718;8.938;2024-01-30T03:33:50;78.60;;;46.75;;
26690;SDS011;14307;51.718;8.938;2024-01-30T03:36:16;85.30;;;48.53;;
26690;SDS011;14307;51.718;8.938;2024-01-30T03:38:43;85.13;;;49.58;;
26690;SDS011;14307;51.718;8.938;2024-01-30T03:41:10;74.20;;;49.28;;
26690;SDS011;14307;51.718;8.938;2024-01-30T03:43:37;79.30;;;49.70;;
26690;SDS011;14307;51.718;8.938;2024-01-30T03:46:04;76.72;;;52.35;;
26690;SDS011;14307;51.718;8.938;2024-01-30T03:48:30;86.60;;;52.72;;
26690;SDS011;14307;51.718;8.938;2024-01-30T03:50:57;77.75;;;52.17;;
26690;SDS011;14307;51.718;8.938;2024-01-30T03:53:24;80.38;;;54.38;;
26690;SDS011;14307;51.718;8.938;2024-01-30T03:55:51;90.85;;;53.05;;
26690;SDS011;14307;51.718;8.938;2024-01-30T03:58:18;83.00;;;53.38;;
26690;SDS011;14307;51.718;8.938;2024-01-30T04:00:45;89.00;;;54.75;;
26690;SDS011;14307;51.718;8.938;2024-01-30T04:03:12;102.32;;;58.25;;
26690;SDS011;14307;51.718;8.938;2024-01-30T04:05:38;87.13;;;53.70;;
26690;SDS011;14307;51.718;8.938;2024-01-30T04:08:05;81.50;;;53.72;;
26690;SDS011;14307;51.718;8.938;2024-01-30T04:10:32;91.50;;;56.08;;
26690;SDS011;14307;51.718;8.938;2024-01-30T04:12:59;93.47;;;53.90;;
26690;SDS011;14307;51.718;8.938;2024-01-30T04:15:26;93.53;;;54.50;;
26690;SDS011;14307;51.718;8.938;2024-01-30T04:17:58;86.13;;;53.00;;
26690;SDS011;14307;51.718;8.938;2024-01-30T04:20:26;86.75;;;52.42;;
26690;SDS011;14307;51.718;8.938;2024-01-30T04:22:53;79.75;;;49.35;;
26690;SDS011;14307;51.718;8.938;2024-01-30T04:25:19;84.22;;;49.53;;
26690;SDS011;14307;51.718;8.938;2024-01-30T04:27:46;85.72;;;49.42;;
26690;SDS011;14307;51.718;8.938;2024-01-30T04:30:13;91.20;;;48.72;;
26690;SDS011;14307;51.718;8.938;2024-01-30T04:32:40;75.65;;;46.78;;
26690;SDS011;14307;51.718;8.938;2024-01-30T04:35:07;82.18;;;48.10;;
26690;SDS011;14307;51.718;8.938;2024-01-30T04:37:37;129.75;;;53.22;;
26690;SDS011;14307;51.718;8.938;2024-01-30T04:40:04;78.85;;;47.75;;
26690;SDS011;14307;51.718;8.938;2024-01-30T04:42:32;89.75;;;49.63;;
26690;SDS011;14307;51.718;8.938;2024-01-30T04:44:58;86.18;;;48.45;;
26690;SDS011;14307;51.718;8.938;2024-01-30T04:47:26;84.88;;;48.38;;
26690;SDS011;14307;51.718;8.938;2024-01-30T04:49:53;83.13;;;49.60;;
26690;SDS011;14307;51.718;8.938;2024-01-30T04:52:20;95.68;;;53.13;;
26690;SDS011;14307;51.718;8.938;2024-01-30T04:54:47;88.82;;;49.95;;
26690;SDS011;14307;51.718;8.938;2024-01-30T04:57:14;107.15;;;55.58;;
26690;SDS011;14307;51.718;8.938;2024-01-30T04:59:40;85.72;;;50.45;;
26690;SDS011;14307;51.718;8.938;2024-01-30T05:02:07;105.15;;;55.42;;
26690;SDS011;14307;51.718;8.938;2024-01-30T05:04:34;99.72;;;52.60;;
26690;SDS011;14307;51.718;8.938;2024-01-30T05:07:01;96.68;;;54.80;;
26690;SDS011;14307;51.718;8.938;2024-01-30T05:09:28;91.68;;;55.00;;
26690;SDS011;14307;51.718;8.938;2024-01-30T05:11:55;136.90;;;55.50;;
26690;SDS011;14307;51.718;8.938;2024-01-30T05:14:22;82.50;;;53.13;;
26690;SDS011;14307;51.718;8.938;2024-01-30T05:16:48;98.90;;;54.40;;
26690;SDS011;14307;51.718;8.938;2024-01-30T05:19:15;76.07;;;49.08;;
26690;SDS011;14307;51.718;8.938;2024-01-30T05:21:43;87.10;;;51.63;;
26690;SDS011;14307;51.718;8.938;2024-01-30T05:24:10;91.47;;;52.03;;
26690;SDS011;14307;51.718;8.938;2024-01-30T05:26:37;96.43;;;53.55;;
26690;SDS011;14307;51.718;8.938;2024-01-30T05:29:04;97.93;;;54.63;;
26690;SDS011;14307;51.718;8.938;2024-01-30T05:31:32;98.93;;;54.20;;
26690;SDS011;14307;51.718;8.938;2024-01-30T05:33:59;93.57;;;53.58;;
26690;SDS011;14307;51.718;8.938;2024-01-30T05:36:26;97.78;;;53.20;;
26690;SDS011;14307;51.718;8.938;2024-01-30T05:38:53;88.60;;;52.55;;
26690;SDS011;14307;51.718;8.938;2024-01-30T05:41:20;101.82;;;53.55;;
26690;SDS011;14307;51.718;8.938;2024-01-30T05:43:49;87.43;;;52.47;;
26690;SDS011;14307;51.718;8.938;2024-01-30T05:46:16;96.75;;;51.00;;
26690;SDS011;14307;51.718;8.938;2024-01-30T05:48:43;85.25;;;52.60;;
26690;SDS011;14307;51.718;8.938;2024-01-30T05:51:09;99.03;;;52.08;;
26690;SDS011;14307;51.718;8.938;2024-01-30T05:53:36;108.55;;;54.03;;
26690;SDS011;14307;51.718;8.938;2024-01-30T05:56:04;98.97;;;53.60;;
26690;SDS011;14307;51.718;8.938;2024-01-30T05:58:31;93.93;;;52.40;;
26690;SDS011;14307;51.718;8.938;2024-01-30T06:00:58;90.90;;;53.85;;
26690;SDS011;14307;51.718;8.938;2024-01-30T06:03:25;102.38;;;56.45;;
26690;SDS011;14307;51.718;8.938;2024-01-30T06:05:51;103.28;;;54.47;;
26690;SDS011;14307;51.718;8.938;2024-01-30T06:08:18;96.18;;;54.80;;
26690;SDS011;14307;51.718;8.938;2024-01-30T06:10:45;94.22;;;52.53;;
26690;SDS011;14307;51.718;8.938;2024-01-30T06:13:13;90.93;;;52.83;;
26690;SDS011;14307;51.718;8.938;2024-01-30T06:15:40;95.40;;;53.92;;
26690;SDS011;14307;51.718;8.938;2024-01-30T06:18:07;97.80;;;53.97;;
26690;SDS011;14307;51.718;8.938;2024-01-30T06:20:34;100.90;;;53.75;;
26690;SDS011;14307;51.718;8.938;2024-01-30T06:23:01;88.10;;;52.60;;
26690;SDS011;14307;51.718;8.938;2024-01-30T06:25:28;83.50;;;50.60;;
26690;SDS011;14307;51.718;8.938;2024-01-30T06:27:55;95.25;;;56.72;;
26690;SDS011;14307;51.718;8.938;2024-01-30T06:30:22;111.95;;;58.47;;
26690;SDS011;14307;51.718;8.938;2024-01-30T06:32:49;88.22;;;54.03;;
26690;SDS011;14307;51.718;8.938;2024-01-30T06:35:16;92.05;;;54.38;;
26690;SDS011;14307;51.718;8.938;2024-01-30T06:37:43;89.70;;;54.72;;
26690;SDS011;14307;51.718;8.938;2024-01-30T06:40:10;100.18;;;57.20;;
26690;SDS011;14307;51.718;8.938;2024-01-30T06:42:38;90.80;;;54.03;;
26690;SDS011;14307;51.718;8.938;2024-01-30T06:45:04;88.35;;;54.97;;
26690;SDS011;14307;51.718;8.938;2024-01-30T06:47:32;97.88;;;57.88;;
26690;SDS011;14307;51.718;8.938;2024-01-30T06:49:58;95.72;;;57.58;;
26690;SDS011;14307;51.718;8.938;2024-01-30T06:52:26;99.13;;;56.78;;
26690;SDS011;14307;51.718;8.938;2024-01-30T06:54:53;95.45;;;55.10;;
26690;SDS011;14307;51.718;8.938;2024-01-30T06:57:20;94.28;;;53.17;;
26690;SDS011;14307;51.718;8.938;2024-01-30T06:59:47;85.18;;;51.45;;
26690;SDS011;14307;51.718;8.938;2024-01-30T07:02:14;89.97;;;51.65;;
26690;SDS011;14307;51.718;8.938;2024-01-30T07:04:41;93.68;;;52.35;;
26690;SDS011;14307;51.718;8.938;2024-01-30T07:07:12;98.07;;;54.28;;
26690;SDS011;14307;51.718;8.938;2024-01-30T07:09:41;89.82;;;51.22;;
26690;SDS011;14307;51.718;8.938;2024-01-30T07:12:08;84.00;;;49.47;;
26690;SDS011;14307;51.718;8.938;2024-01-30T07:14:35;85.88;;;49.00;;
26690;SDS011;14307;51.718;8.938;2024-01-30T07:17:01;89.97;;;49.60;;
26690;SDS011;14307;51.718;8.938;2024-01-30T07:19:29;94.30;;;51.38;;
26690;SDS011;14307;51.718;8.938;2024-01-30T07:21:56;98.57;;;50.97;;
26690;SDS011;14307;51.718;8.938;2024-01-30T07:24:23;81.70;;;47.40;;
26690;SDS011;14307;51.718;8.938;2024-01-30T07:26:49;91.85;;;51.25;;
26690;SDS011;14307;51.718;8.938;2024-01-30T07:29:16;98.18;;;52.58;;
26690;SDS011;14307;51.718;8.938;2024-01-30T07:31:43;104.15;;;54.35;;
26690;SDS011;14307;51.718;8.938;2024-01-30T07:34:11;87.47;;;53.30;;
26690;SDS011;14307;51.718;8.938;2024-01-30T07:36:38;103.63;;;52.90;;
26690;SDS011;14307;51.718;8.938;2024-01-30T07:39:05;84.45;;;49.63;;
26690;SDS011;14307;51.718;8.938;2024-01-30T07:41:32;94.20;;;53.85;;
26690;SDS011;14307;51.718;8.938;2024-01-30T07:43:59;104.15;;;55.10;;
26690;SDS011;14307;51.718;8.938;2024-01-30T07:46:26;91.40;;;51.40;;
26690;SDS011;14307;51.718;8.938;2024-01-30T07:48:53;96.95;;;52.60;;
26690;SDS011;14307;51.718;8.938;2024-01-30T07:51:22;88.43;;;51.08;;
26690;SDS011;14307;51.718;8.938;2024-01-30T07:53:48;88.50;;;51.90;;
26690;SDS011;14307;51.718;8.938;2024-01-30T07:56:15;95.00;;;54.83;;
26690;SDS011;14307;51.718;8.938;2024-01-30T07:58:42;90.30;;;55.17;;
26690;SDS011;14307;51.718;8.938;2024-01-30T08:01:09;94.85;;;55.25;;
26690;SDS011;14307;51.718;8.938;2024-01-30T08:03:36;96.82;;;57.05;;
26690;SDS011;14307;51.718;8.938;2024-01-30T08:06:05;87.57;;;55.58;;
26690;SDS011;14307;51.718;8.938;2024-01-30T08:08:33;95.65;;;58.58;;
26690;SDS011;14307;51.718;8.938;2024-01-30T08:10:59;89.40;;;55.92;;
26690;SDS011;14307;51.718;8.938;2024-01-30T08:13:27;108.22;;;58.58;;
26690;SDS011;14307;51.718;8.938;2024-01-30T08:15:54;93.65;;;57.33;;
26690;SDS011;14307;51.718;8.938;2024-01-30T08:18:21;94.53;;;58.40;;
26690;SDS011;14307;51.718;8.938;2024-01-30T08:20:48;88.93;;;58.97;;
26690;SDS011;14307;51.718;8.938;2024-01-30T08:23:15;98.72;;;59.33;;
26690;SDS011;14307;51.718;8.938;2024-01-30T08:25:42;94.03;;;61.30;;
26690;SDS011;14307;51.718;8.938;2024-01-30T08:28:08;106.05;;;65.53;;
26690;SDS011;14307;51.718;8.938;2024-01-30T08:30:36;97.88;;;65.35;;
26690;SDS011;14307;51.718;8.938;2024-01-30T08:33:02;87.50;;;60.22;;
26690;SDS011;14307;51.718;8.938;2024-01-30T08:35:29;93.72;;;63.55;;
26690;SDS011;14307;51.718;8.938;2024-01-30T08:37:59;86.07;;;62.28;;
26690;SDS011;14307;51.718;8.938;2024-01-30T08:40:27;103.68;;;72.72;;
26690;SDS011;14307;51.718;8.938;2024-01-30T08:42:55;85.45;;;62.58;;
26690;SDS011;14307;51.718;8.938;2024-01-30T08:45:22;95.78;;;65.53;;
26690;SDS011;14307;51.718;8.938;2024-01-30T08:47:48;96.70;;;66.78;;
26690;SDS011;14307;51.718;8.938;2024-01-30T08:50:15;115.63;;;76.50;;
26690;SDS011;14307;51.718;8.938;2024-01-30T08:52:42;75.75;;;61.90;;
26690;SDS011;14307;51.718;8.938;2024-01-30T08:55:11;90.55;;;66.20;;
26690;SDS011;14307;51.718;8.938;2024-01-30T08:57:38;82.30;;;62.03;;
26690;SDS011;14307;51.718;8.938;2024-01-30T09:00:05;87.88;;;63.42;;
26690;SDS011;14307;51.718;8.938;2024-01-30T09:02:35;94.63;;;64.45;;
26690;SDS011;14307;51.718;8.938;2024-01-30T09:05:02;93.30;;;62.67;;
26690;SDS011;14307;51.718;8.938;2024-01-30T09:07:29;100.43;;;68.53;;
26690;SDS011;14307;51.718;8.938;2024-01-30T09:09:56;118.97;;;68.75;;
26690;SDS011;14307;51.718;8.938;2024-01-30T09:12:23;92.57;;;62.67;;
26690;SDS011;14307;51.718;8.938;2024-01-30T09:14:50;88.47;;;62.17;;
26690;SDS011;14307;51.718;8.938;2024-01-30T09:17:16;77.00;;;54.70;;
26690;SDS011;14307;51.718;8.938;2024-01-30T09:19:43;72.18;;;49.97;;
26690;SDS011;14307;51.718;8.938;2024-01-30T09:22:10;61.47;;;45.83;;
26690;SDS011;14307;51.718;8.938;2024-01-30T09:24:37;54.20;;;40.83;;
26690;SDS011;14307;51.718;8.938;2024-01-30T09:27:04;48.00;;;38.47;;
26690;SDS011;14307;51.718;8.938;2024-01-30T09:29:31;47.75;;;37.53;;
26690;SDS011;14307;51.718;8.938;2024-01-30T09:32:00;49.58;;;37.92;;
26690;SDS011;14307;51.718;8.938;2024-01-30T09:34:27;44.60;;;35.67;;
26690;SDS011;14307;51.718;8.938;2024-01-30T09:36:54;43.15;;;32.92;;
26690;SDS011;14307;51.718;8.938;2024-01-30T09:39:21;44.50;;;33.67;;
26690;SDS011;14307;51.718;8.938;2024-01-30T09:42:00;42.42;;;34.33;;
26690;SDS011;14307;51.718;8.938;2024-01-30T09:44:29;40.83;;;34.22;;
26690;SDS011;14307;51.718;8.938;2024-01-30T09:46:56;44.92;;;35.38;;
26690;SDS011;14307;51.718;8.938;2024-01-30T09:49:31;45.70;;;35.47;;
26690;SDS011;14307;51.718;8.938;2024-01-30T09:51:59;37.72;;;33.70;;
26690;SDS011;14307;51.718;8.938;2024-01-30T09:54:29;37.10;;;33.22;;
26690;SDS011;14307;51.718;8.938;2024-01-30T09:56:59;37.60;;;33.72;;
26690;SDS011;14307;51.718;8.938;2024-01-30T09:59:27;40.25;;;35.33;;
26690;SDS011;14307;51.718;8.938;2024-01-30T10:01:53;39.95;;;33.28;;
26690;SDS011;14307;51.718;8.938;2024-01-30T10:04:20;37.17;;;33.45;;
26690;SDS011;14307;51.718;8.938;2024-01-30T10:06:47;37.03;;;33.13;;
26690;SDS011;14307;51.718;8.938;2024-01-30T10:09:14;36.72;;;33.13;;
26690;SDS011;14307;51.718;8.938;2024-01-30T10:11:41;41.88;;;35.45;;
26690;SDS011;14307;51.718;8.938;2024-01-30T10:14:08;38.55;;;34.78;;
26690;SDS011;14307;51.718;8.938;2024-01-30T10:16:36;38.38;;;34.33;;
26690;SDS011;14307;51.718;8.938;2024-01-30T10:19:02;38.28;;;34.38;;
26690;SDS011;14307;51.718;8.938;2024-01-30T10:21:29;38.97;;;35.10;;
26690;SDS011;14307;51.718;8.938;2024-01-30T10:23:56;37.22;;;33.80;;
26690;SDS011;14307;51.718;8.938;2024-01-30T10:26:23;37.35;;;33.72;;
26690;SDS011;14307;51.718;8.938;2024-01-30T10:28:50;39.22;;;35.42;;
26690;SDS011;14307;51.718;8.938;2024-01-30T10:31:17;38.60;;;34.75;;
26690;SDS011;14307;51.718;8.938;2024-01-30T10:33:47;39.63;;;35.75;;
26690;SDS011;14307;51.718;8.938;2024-01-30T10:36:14;38.92;;;35.22;;
26690;SDS011;14307;51.718;8.938;2024-01-30T10:38:46;41.67;;;37.33;;
26690;SDS011;14307;51.718;8.938;2024-01-30T10:41:15;37.00;;;33.47;;
26690;SDS011;14307;51.718;8.938;2024-01-30T10:43:47;37.53;;;33.70;;
26690;SDS011;14307;51.718;8.938;2024-01-30T10:46:25;35.20;;;31.95;;
26690;SDS011;14307;51.718;8.938;2024-01-30T10:48:57;38.28;;;34.58;;
26690;SDS011;14307;51.718;8.938;2024-01-30T10:51:27;39.15;;;35.00;;
26690;SDS011;14307;51.718;8.938;2024-01-30T10:53:55;35.00;;;31.67;;
26690;SDS011;14307;51.718;8.938;2024-01-30T10:56:24;36.58;;;32.90;;
26690;SDS011;14307;51.718;8.938;2024-01-30T10:58:52;36.70;;;33.20;;
26690;SDS011;14307;51.718;8.938;2024-01-30T11:01:20;35.97;;;32.47;;
26690;SDS011;14307;51.718;8.938;2024-01-30T11:03:51;35.35;;;32.10;;
26690;SDS011;14307;51.718;8.938;2024-01-30T11:06:21;34.92;;;31.88;;
26690;SDS011;14307;51.718;8.938;2024-01-30T11:09:05;37.05;;;33.45;;
26690;SDS011;14307;51.718;8.938;2024-01-30T11:14:16;37.08;;;33.22;;
26690;SDS011;14307;51.718;8.938;2024-01-30T11:16:50;36.53;;;33.17;;
26690;SDS011;14307;51.718;8.938;2024-01-30T11:19:23;36.63;;;33.22;;
26690;SDS011;14307;51.718;8.938;2024-01-30T11:21:54;36.28;;;33.00;;
26690;SDS011;14307;51.718;8.938;2024-01-30T11:24:23;35.38;;;32.00;;
26690;SDS011;14307;51.718;8.938;2024-01-30T11:26:56;36.60;;;33.00;;
26690;SDS011;14307;51.718;8.938;2024-01-30T11:29:27;35.95;;;32.65;;
26690;SDS011;14307;51.718;8.938;2024-01-30T11:31:55;37.55;;;33.88;;
26690;SDS011;14307;51.718;8.938;2024-01-30T11:34:26;36.42;;;32.85;;
26690;SDS011;14307;51.718;8.938;2024-01-30T11:36:57;37.05;;;33.60;;
26690;SDS011;14307;51.718;8.938;2024-01-30T11:39:26;35.60;;;32.50;;
26690;SDS011;14307;51.718;8.938;2024-01-30T11:41:54;38.88;;;35.42;;
26690;SDS011;14307;51.718;8.938;2024-01-30T11:44:24;36.53;;;33.15;;
26690;SDS011;14307;51.718;8.938;2024-01-30T11:46:51;34.70;;;31.65;;
26690;SDS011;14307;51.718;8.938;2024-01-30T11:49:18;35.53;;;32.42;;
26690;SDS011;14307;51.718;8.938;2024-01-30T11:51:48;36.22;;;32.97;;
26690;SDS011;14307;51.718;8.938;2024-01-30T11:54:16;36.13;;;33.08;;
26690;SDS011;14307;51.718;8.938;2024-01-30T11:56:43;36.08;;;32.88;;
26690;SDS011;14307;51.718;8.938;2024-01-30T11:59:10;34.58;;;31.67;;
26690;SDS011;14307;51.718;8.938;2024-01-30T12:01:36;35.50;;;32.42;;
26690;SDS011;14307;51.718;8.938;2024-01-30T12:04:04;34.97;;;31.75;;
26690;SDS011;14307;51.718;8.938;2024-01-30T12:06:35;35.72;;;32.63;;
26690;SDS011;14307;51.718;8.938;2024-01-30T12:09:02;36.22;;;33.28;;
26690;SDS011;14307;51.718;8.938;2024-01-30T12:11:46;38.28;;;35.28;;
26690;SDS011;14307;51.718;8.938;2024-01-30T12:14:13;38.38;;;35.20;;
26690;SDS011;14307;51.718;8.938;2024-01-30T12:16:41;38.42;;;35.00;;
26690;SDS011;14307;51.718;8.938;2024-01-30T12:19:08;37.97;;;34.53;;
26690;SDS011;14307;51.718;8.938;2024-01-30T12:21:35;40.95;;;37.55;;
26690;SDS011;14307;51.718;8.938;2024-01-30T12:24:02;41.65;;;38.00;;
26690;SDS011;14307;51.718;8.938;2024-01-30T12:26:29;39.83;;;35.97;;
26690;SDS011;14307;51.718;8.938;2024-01-30T12:28:56;37.50;;;34.20;;
26690;SDS011;14307;51.718;8.938;2024-01-30T12:31:28;38.45;;;35.28;;
26690;SDS011;14307;51.718;8.938;2024-01-30T12:33:55;38.20;;;34.90;;
26690;SDS011;14307;51.718;8.938;2024-01-30T12:36:24;37.17;;;33.80;;
26690;SDS011;14307;51.718;8.938;2024-01-30T12:38:52;36.75;;;33.55;;
26690;SDS011;14307;51.718;8.938;2024-01-30T12:41:19;36.15;;;33.15;;
26690;SDS011;14307;51.718;8.938;2024-01-30T12:43:46;35.38;;;32.38;;
26690;SDS011;14307;51.718;8.938;2024-01-30T12:46:16;35.95;;;32.75;;
26690;SDS011;14307;51.718;8.938;2024-01-30T12:48:43;35.85;;;32.88;;
26690;SDS011;14307;51.718;8.938;2024-01-30T12:51:10;36.65;;;33.45;;
26690;SDS011;14307;51.718;8.938;2024-01-30T12:53:37;76.35;;;59.58;;
26690;SDS011;14307;51.718;8.938;2024-01-30T12:56:04;59.25;;;52.97;;
26690;SDS011;14307;51.718;8.938;2024-01-30T12:58:31;43.40;;;39.33;;
26690;SDS011;14307;51.718;8.938;2024-01-30T13:00:58;38.40;;;35.13;;
26690;SDS011;14307;51.718;8.938;2024-01-30T13:03:25;45.25;;;41.38;;
26690;SDS011;14307;51.718;8.938;2024-01-30T13:05:51;50.05;;;44.85;;
26690;SDS011;14307;51.718;8.938;2024-01-30T13:08:19;52.40;;;47.28;;
26690;SDS011;14307;51.718;8.938;2024-01-30T13:10:45;41.47;;;37.78;;
26690;SDS011;14307;51.718;8.938;2024-01-30T13:13:15;43.38;;;39.40;;
26690;SDS011;14307;51.718;8.938;2024-01-30T13:15:46;42.38;;;38.28;;
26690;SDS011;14307;51.718;8.938;2024-01-30T13:18:14;38.08;;;34.85;;
26690;SDS011;14307;51.718;8.938;2024-01-30T13:20:41;43.45;;;39.45;;
26690;SDS011;14307;51.718;8.938;2024-01-30T13:23:08;40.30;;;36.92;;
26690;SDS011;14307;51.718;8.938;2024-01-30T13:25:35;36.53;;;33.22;;
26690;SDS011;14307;51.718;8.938;2024-01-30T13:28:02;34.25;;;31.25;;
26690;SDS011;14307;51.718;8.938;2024-01-30T13:30:29;33.88;;;30.77;;
26690;SDS011;14307;51.718;8.938;2024-01-30T13:32:55;30.63;;;27.92;;
26690;SDS011;14307;51.718;8.938;2024-01-30T13:35:22;31.17;;;28.45;;
26690;SDS011;14307;51.718;8.938;2024-01-30T13:37:49;29.27;;;26.52;;
26690;SDS011;14307;51.718;8.938;2024-01-30T13:40:16;30.20;;;27.23;;
26690;SDS011;14307;51.718;8.938;2024-01-30T13:42:43;28.55;;;25.20;;
26690;SDS011;14307;51.718;8.938;2024-01-30T13:45:09;28.70;;;26.30;;
26690;SDS011;14307;51.718;8.938;2024-01-30T13:47:37;27.60;;;25.20;;
26690;SDS011;14307;51.718;8.938;2024-01-30T13:50:05;28.73;;;26.20;;
26690;SDS011;14307;51.718;8.938;2024-01-30T13:52:33;29.30;;;26.73;;
26690;SDS011;14307;51.718;8.938;2024-01-30T13:55:10;31.05;;;28.42;;
26690;SDS011;14307;51.718;8.938;2024-01-30T13:57:37;29.50;;;27.05;;
26690;SDS011;14307;51.718;8.938;2024-01-30T14:00:04;30.13;;;27.23;;
26690;SDS011;14307;51.718;8.938;2024-01-30T14:02:38;31.58;;;28.83;;
26690;SDS011;14307;51.718;8.938;2024-01-30T14:05:05;31.23;;;28.25;;
26690;SDS011;14307;51.718;8.938;2024-01-30T14:07:32;35.05;;;30.08;;
26690;SDS011;14307;51.718;8.938;2024-01-30T14:09:59;31.05;;;28.50;;
26690;SDS011;14307;51.718;8.938;2024-01-30T14:12:27;29.20;;;26.70;;
26690;SDS011;14307;51.718;8.938;2024-01-30T14:14:54;29.98;;;27.05;;
26690;SDS011;14307;51.718;8.938;2024-01-30T14:17:21;29.63;;;27.27;;
26690;SDS011;14307;51.718;8.938;2024-01-30T14:19:48;29.30;;;26.73;;
26690;SDS011;14307;51.718;8.938;2024-01-30T14:22:15;28.45;;;26.05;;
26690;SDS011;14307;51.718;8.938;2024-01-30T14:24:41;29.38;;;26.85;;